sensor_id;sensor_type;location;lat;lon;timestamp;temperature;humidity
26212;DHT22;13951;49.516;6.094;2023-08-31T00:01:18;12.80;99.90
26212;DHT22;13951;49.516;6.094;2023-08-31T00:03:51;12.80;99.90
26212;DHT22;13951;49.516;6.094;2023-08-31T00:06:26;12.80;99.90
26212;DHT22;13951;49.516;6.094;2023-08-31T00:08:59;12.80;99.90
26212;DHT22;13951;49.516;6.094;2023-08-31T00:11:33;12.80;99.90
26212;DHT22;13951;49.516;6.094;2023-08-31T00:14:07;12.80;99.90
26212;DHT22;13951;49.516;6.094;2023-08-31T00:16:40;12.80;99.90
26212;DHT22;13951;49.516;6.094;2023-08-31T00:19:14;12.80;99.90
26212;DHT22;13951;49.516;6.094;2023-08-31T00:21:47;12.80;99.90
26212;DHT22;13951;49.516;6.094;2023-08-31T00:24:21;12.80;99.90
26212;DHT22;13951;49.516;6.094;2023-08-31T00:26:56;12.80;99.90
26212;DHT22;13951;49.516;6.094;2023-08-31T00:29:29;12.80;99.90
26212;DHT22;13951;49.516;6.094;2023-08-31T00:32:03;12.70;99.90
26212;DHT22;13951;49.516;6.094;2023-08-31T00:34:37;12.70;99.90
26212;DHT22;13951;49.516;6.094;2023-08-31T00:37:10;12.70;99.90
26212;DHT22;13951;49.516;6.094;2023-08-31T00:39:45;12.70;99.90
26212;DHT22;13951;49.516;6.094;2023-08-31T00:42:20;12.70;99.90
26212;DHT22;13951;49.516;6.094;2023-08-31T00:44:53;12.70;99.90
26212;DHT22;13951;49.516;6.094;2023-08-31T00:47:27;12.70;99.90
26212;DHT22;13951;49.516;6.094;2023-08-31T00:50:01;12.60;99.90
26212;DHT22;13951;49.516;6.094;2023-08-31T00:52:34;12.60;99.90
26212;DHT22;13951;49.516;6.094;2023-08-31T00:55:08;12.60;99.90
26212;DHT22;13951;49.516;6.094;2023-08-31T00:57:44;12.60;99.90
26212;DHT22;13951;49.516;6.094;2023-08-31T01:00:19;12.60;99.90
26212;DHT22;13951;49.516;6.094;2023-08-31T01:02:59;12.50;99.90
26212;DHT22;13951;49.516;6.094;2023-08-31T01:05:52;12.50;99.90
26212;DHT22;13951;49.516;6.094;2023-08-31T01:08:58;12.50;99.90
26212;DHT22;13951;49.516;6.094;2023-08-31T01:14:19;12.40;99.90
26212;DHT22;13951;49.516;6.094;2023-08-31T01:16:57;12.40;99.90
26212;DHT22;13951;49.516;6.094;2023-08-31T01:19:50;12.40;99.90
26212;DHT22;13951;49.516;6.094;2023-08-31T01:25:05;12.40;99.90
26212;DHT22;13951;49.516;6.094;2023-08-31T01:27:42;12.40;99.90
26212;DHT22;13951;49.516;6.094;2023-08-31T01:30:16;12.40;99.90
26212;DHT22;13951;49.516;6.094;2023-08-31T01:32:49;12.40;99.90
26212;DHT22;13951;49.516;6.094;2023-08-31T01:35:26;12.40;99.90
26212;DHT22;13951;49.516;6.094;2023-08-31T01:38:03;12.30;99.90
26212;DHT22;13951;49.516;6.094;2023-08-31T01:40:55;12.30;99.90
26212;DHT22;13951;49.516;6.094;2023-08-31T01:43:30;12.30;99.90
26212;DHT22;13951;49.516;6.094;2023-08-31T01:46:07;12.30;99.90
26212;DHT22;13951;49.516;6.094;2023-08-31T01:48:40;12.30;99.90
26212;DHT22;13951;49.516;6.094;2023-08-31T01:51:15;12.20;99.90
26212;DHT22;13951;49.516;6.094;2023-08-31T01:53:50;12.20;99.90
26212;DHT22;13951;49.516;6.094;2023-08-31T01:56:23;12.20;99.90
26212;DHT22;13951;49.516;6.094;2023-08-31T01:58:58;12.20;99.90
26212;DHT22;13951;49.516;6.094;2023-08-31T02:01:33;12.20;99.90
26212;DHT22;13951;49.516;6.094;2023-08-31T02:04:07;12.20;99.90
26212;DHT22;13951;49.516;6.094;2023-08-31T02:06:41;12.10;99.90
26212;DHT22;13951;49.516;6.094;2023-08-31T02:09:14;12.10;99.90
26212;DHT22;13951;49.516;6.094;2023-08-31T02:11:47;12.10;99.90
26212;DHT22;13951;49.516;6.094;2023-08-31T02:14:21;12.10;99.90
26212;DHT22;13951;49.516;6.094;2023-08-31T02:16:54;12.10;99.90
26212;DHT22;13951;49.516;6.094;2023-08-31T02:19:27;12.00;99.90
26212;DHT22;13951;49.516;6.094;2023-08-31T02:22:00;12.00;99.90
26212;DHT22;13951;49.516;6.094;2023-08-31T02:24:33;12.00;99.90
26212;DHT22;13951;49.516;6.094;2023-08-31T02:27:07;12.00;99.90
26212;DHT22;13951;49.516;6.094;2023-08-31T02:29:41;11.90;99.90
26212;DHT22;13951;49.516;6.094;2023-08-31T02:32:14;11.90;99.90
26212;DHT22;13951;49.516;6.094;2023-08-31T02:34:48;11.80;99.90
26212;DHT22;13951;49.516;6.094;2023-08-31T02:37:21;11.80;99.90
26212;DHT22;13951;49.516;6.094;2023-08-31T02:39:55;11.80;99.90
26212;DHT22;13951;49.516;6.094;2023-08-31T02:42:29;11.70;99.90
26212;DHT22;13951;49.516;6.094;2023-08-31T02:45:02;11.60;99.90
26212;DHT22;13951;49.516;6.094;2023-08-31T02:47:35;11.60;99.90
26212;DHT22;13951;49.516;6.094;2023-08-31T02:50:09;11.60;99.90
26212;DHT22;13951;49.516;6.094;2023-08-31T02:52:42;11.60;99.90
26212;DHT22;13951;49.516;6.094;2023-08-31T04:22:29;11.60;99.90
26212;DHT22;13951;49.516;6.094;2023-08-31T04:25:02;11.40;99.90
26212;DHT22;13951;49.516;6.094;2023-08-31T04:27:35;11.40;99.90
26212;DHT22;13951;49.516;6.094;2023-08-31T04:30:12;11.40;99.90
26212;DHT22;13951;49.516;6.094;2023-08-31T04:32:45;11.40;99.90
26212;DHT22;13951;49.516;6.094;2023-08-31T04:35:19;11.40;99.90
26212;DHT22;13951;49.516;6.094;2023-08-31T04:37:58;11.50;99.90
26212;DHT22;13951;49.516;6.094;2023-08-31T04:40:31;11.50;99.90
26212;DHT22;13951;49.516;6.094;2023-08-31T04:43:05;11.50;99.90
26212;DHT22;13951;49.516;6.094;2023-08-31T04:45:42;11.50;99.90
26212;DHT22;13951;49.516;6.094;2023-08-31T04:48:15;11.50;99.90
26212;DHT22;13951;49.516;6.094;2023-08-31T04:50:48;11.50;99.90
26212;DHT22;13951;49.516;6.094;2023-08-31T04:53:31;11.50;99.90
26212;DHT22;13951;49.516;6.094;2023-08-31T04:56:08;11.50;99.90
26212;DHT22;13951;49.516;6.094;2023-08-31T04:58:44;11.50;99.90
26212;DHT22;13951;49.516;6.094;2023-08-31T05:01:19;11.50;99.90
26212;DHT22;13951;49.516;6.094;2023-08-31T05:03:52;11.60;99.90
26212;DHT22;13951;49.516;6.094;2023-08-31T05:06:27;11.50;99.90
26212;DHT22;13951;49.516;6.094;2023-08-31T05:09:03;11.50;99.90
26212;DHT22;13951;49.516;6.094;2023-08-31T05:11:38;11.60;99.90
26212;DHT22;13951;49.516;6.094;2023-08-31T05:14:11;11.60;99.90
26212;DHT22;13951;49.516;6.094;2023-08-31T05:16:45;11.60;99.90
26212;DHT22;13951;49.516;6.094;2023-08-31T05:19:21;11.60;99.90
26212;DHT22;13951;49.516;6.094;2023-08-31T05:22:00;11.60;99.90
26212;DHT22;13951;49.516;6.094;2023-08-31T05:24:45;11.60;99.90
26212;DHT22;13951;49.516;6.094;2023-08-31T05:27:33;11.60;99.90
26212;DHT22;13951;49.516;6.094;2023-08-31T05:30:10;11.60;99.90
26212;DHT22;13951;49.516;6.094;2023-08-31T05:33:14;11.60;99.90
26212;DHT22;13951;49.516;6.094;2023-08-31T05:35:48;11.60;99.90
26212;DHT22;13951;49.516;6.094;2023-08-31T05:38:22;11.60;99.90
26212;DHT22;13951;49.516;6.094;2023-08-31T05:41:08;11.60;99.90
26212;DHT22;13951;49.516;6.094;2023-08-31T05:43:42;11.60;99.90
26212;DHT22;13951;49.516;6.094;2023-08-31T05:46:20;11.70;99.90
26212;DHT22;13951;49.516;6.094;2023-08-31T05:48:53;11.70;99.90
26212;DHT22;13951;49.516;6.094;2023-08-31T05:51:30;11.70;99.90
26212;DHT22;13951;49.516;6.094;2023-08-31T05:54:06;11.80;99.90
26212;DHT22;13951;49.516;6.094;2023-08-31T05:56:47;11.80;99.90
26212;DHT22;13951;49.516;6.094;2023-08-31T05:59:22;11.90;99.90
26212;DHT22;13951;49.516;6.094;2023-08-31T06:01:56;12.00;99.90
26212;DHT22;13951;49.516;6.094;2023-08-31T06:04:29;12.10;99.90
26212;DHT22;13951;49.516;6.094;2023-08-31T06:07:06;12.10;99.90
26212;DHT22;13951;49.516;6.094;2023-08-31T06:09:40;12.20;99.90
26212;DHT22;13951;49.516;6.094;2023-08-31T06:12:14;12.30;99.90
26212;DHT22;13951;49.516;6.094;2023-08-31T06:14:48;12.30;99.90
26212;DHT22;13951;49.516;6.094;2023-08-31T06:17:24;12.30;99.90
26212;DHT22;13951;49.516;6.094;2023-08-31T06:20:01;12.40;99.90
26212;DHT22;13951;49.516;6.094;2023-08-31T06:22:42;12.50;99.90
26212;DHT22;13951;49.516;6.094;2023-08-31T06:25:23;12.60;99.90
26212;DHT22;13951;49.516;6.094;2023-08-31T06:28:05;12.70;99.90
26212;DHT22;13951;49.516;6.094;2023-08-31T06:30:41;12.80;99.90
26212;DHT22;13951;49.516;6.094;2023-08-31T06:33:21;12.90;99.90
26212;DHT22;13951;49.516;6.094;2023-08-31T06:35:55;13.00;99.90
26212;DHT22;13951;49.516;6.094;2023-08-31T06:38:29;13.10;99.90
26212;DHT22;13951;49.516;6.094;2023-08-31T06:41:06;13.20;99.90
26212;DHT22;13951;49.516;6.094;2023-08-31T06:43:40;13.30;99.90
26212;DHT22;13951;49.516;6.094;2023-08-31T06:46:14;13.40;99.90
26212;DHT22;13951;49.516;6.094;2023-08-31T06:48:57;13.70;99.90
26212;DHT22;13951;49.516;6.094;2023-08-31T06:51:35;13.80;99.90
26212;DHT22;13951;49.516;6.094;2023-08-31T06:54:11;14.00;99.90
26212;DHT22;13951;49.516;6.094;2023-08-31T06:56:44;14.10;99.90
26212;DHT22;13951;49.516;6.094;2023-08-31T06:59:17;14.30;99.90
26212;DHT22;13951;49.516;6.094;2023-08-31T07:01:51;14.50;99.90
26212;DHT22;13951;49.516;6.094;2023-08-31T07:04:24;14.60;99.90
26212;DHT22;13951;49.516;6.094;2023-08-31T07:07:00;14.60;99.90
26212;DHT22;13951;49.516;6.094;2023-08-31T07:09:35;14.60;99.90
26212;DHT22;13951;49.516;6.094;2023-08-31T07:12:08;14.70;99.90
26212;DHT22;13951;49.516;6.094;2023-08-31T07:14:43;14.80;99.90
26212;DHT22;13951;49.516;6.094;2023-08-31T07:17:21;14.80;99.90
26212;DHT22;13951;49.516;6.094;2023-08-31T07:19:54;14.80;99.90
26212;DHT22;13951;49.516;6.094;2023-08-31T07:22:28;14.90;99.90
26212;DHT22;13951;49.516;6.094;2023-08-31T07:25:02;15.10;99.90
26212;DHT22;13951;49.516;6.094;2023-08-31T07:27:43;15.20;99.90
26212;DHT22;13951;49.516;6.094;2023-08-31T07:30:16;15.30;99.90
26212;DHT22;13951;49.516;6.094;2023-08-31T07:40:05;15.90;99.90
26212;DHT22;13951;49.516;6.094;2023-08-31T07:48:57;16.40;99.90
26212;DHT22;13951;49.516;6.094;2023-08-31T07:51:35;16.50;99.90
26212;DHT22;13951;49.516;6.094;2023-08-31T07:54:08;16.60;99.90
26212;DHT22;13951;49.516;6.094;2023-08-31T07:56:51;16.70;99.90
26212;DHT22;13951;49.516;6.094;2023-08-31T07:59:25;16.80;99.90
26212;DHT22;13951;49.516;6.094;2023-08-31T08:01:58;16.80;99.90
26212;DHT22;13951;49.516;6.094;2023-08-31T08:04:32;16.90;99.90
26212;DHT22;13951;49.516;6.094;2023-08-31T08:07:05;16.90;99.90
26212;DHT22;13951;49.516;6.094;2023-08-31T08:09:46;17.00;99.90
26212;DHT22;13951;49.516;6.094;2023-08-31T08:13:30;17.00;99.90
26212;DHT22;13951;49.516;6.094;2023-08-31T08:16:18;17.00;99.90
26212;DHT22;13951;49.516;6.094;2023-08-31T08:18:59;17.00;99.90
26212;DHT22;13951;49.516;6.094;2023-08-31T08:21:33;17.20;99.90
26212;DHT22;13951;49.516;6.094;2023-08-31T08:24:07;17.30;99.90
26212;DHT22;13951;49.516;6.094;2023-08-31T08:26:41;17.30;99.90
26212;DHT22;13951;49.516;6.094;2023-08-31T08:29:15;17.40;99.90
26212;DHT22;13951;49.516;6.094;2023-08-31T08:31:48;17.60;99.90
26212;DHT22;13951;49.516;6.094;2023-08-31T08:34:21;17.80;99.90
26212;DHT22;13951;49.516;6.094;2023-08-31T08:36:54;17.80;99.90
26212;DHT22;13951;49.516;6.094;2023-08-31T08:39:28;17.90;99.90
26212;DHT22;13951;49.516;6.094;2023-08-31T08:42:04;17.90;99.90
26212;DHT22;13951;49.516;6.094;2023-08-31T08:44:39;17.80;99.90
26212;DHT22;13951;49.516;6.094;2023-08-31T08:47:13;17.70;99.90
26212;DHT22;13951;49.516;6.094;2023-08-31T08:49:47;17.80;99.90
26212;DHT22;13951;49.516;6.094;2023-08-31T08:52:22;17.90;99.90
26212;DHT22;13951;49.516;6.094;2023-08-31T08:54:57;18.10;99.90
26212;DHT22;13951;49.516;6.094;2023-08-31T08:57:32;18.20;99.90
26212;DHT22;13951;49.516;6.094;2023-08-31T09:00:06;18.20;99.90
26212;DHT22;13951;49.516;6.094;2023-08-31T09:02:41;18.30;99.90
26212;DHT22;13951;49.516;6.094;2023-08-31T09:05:15;18.30;99.90
26212;DHT22;13951;49.516;6.094;2023-08-31T09:10:39;18.20;99.90
26212;DHT22;13951;49.516;6.094;2023-08-31T09:13:15;18.20;99.90
26212;DHT22;13951;49.516;6.094;2023-08-31T09:15:49;18.20;99.90
26212;DHT22;13951;49.516;6.094;2023-08-31T09:18:30;18.10;99.90
26212;DHT22;13951;49.516;6.094;2023-08-31T09:21:05;18.20;99.90
26212;DHT22;13951;49.516;6.094;2023-08-31T09:23:38;18.20;99.90
26212;DHT22;13951;49.516;6.094;2023-08-31T09:26:12;18.20;99.90
26212;DHT22;13951;49.516;6.094;2023-08-31T09:28:46;18.10;99.90
26212;DHT22;13951;49.516;6.094;2023-08-31T09:31:20;18.20;99.90
26212;DHT22;13951;49.516;6.094;2023-08-31T09:33:53;18.20;99.90
26212;DHT22;13951;49.516;6.094;2023-08-31T09:36:27;18.30;99.90
26212;DHT22;13951;49.516;6.094;2023-08-31T09:39:01;18.50;99.90
26212;DHT22;13951;49.516;6.094;2023-08-31T09:41:36;18.50;99.90
26212;DHT22;13951;49.516;6.094;2023-08-31T09:44:25;18.60;99.90
26212;DHT22;13951;49.516;6.094;2023-08-31T09:46:59;18.80;99.90
26212;DHT22;13951;49.516;6.094;2023-08-31T09:49:32;18.90;99.90
26212;DHT22;13951;49.516;6.094;2023-08-31T09:52:07;18.90;99.90
26212;DHT22;13951;49.516;6.094;2023-08-31T09:54:42;19.00;99.90
26212;DHT22;13951;49.516;6.094;2023-08-31T09:57:18;19.10;99.90
26212;DHT22;13951;49.516;6.094;2023-08-31T10:00:04;19.20;99.90
26212;DHT22;13951;49.516;6.094;2023-08-31T10:02:37;19.10;99.90
26212;DHT22;13951;49.516;6.094;2023-08-31T10:05:11;19.00;99.90
26212;DHT22;13951;49.516;6.094;2023-08-31T10:07:45;18.80;99.90
26212;DHT22;13951;49.516;6.094;2023-08-31T10:10:21;18.60;99.90
26212;DHT22;13951;49.516;6.094;2023-08-31T10:12:59;18.50;99.90
26212;DHT22;13951;49.516;6.094;2023-08-31T10:15:33;18.30;99.90
26212;DHT22;13951;49.516;6.094;2023-08-31T10:18:07;18.30;99.90
26212;DHT22;13951;49.516;6.094;2023-08-31T10:20:43;18.50;99.90
26212;DHT22;13951;49.516;6.094;2023-08-31T10:23:17;18.60;99.90
26212;DHT22;13951;49.516;6.094;2023-08-31T10:28:27;18.90;99.90
26212;DHT22;13951;49.516;6.094;2023-08-31T10:31:06;18.90;99.90
26212;DHT22;13951;49.516;6.094;2023-08-31T10:33:45;18.90;99.90
26212;DHT22;13951;49.516;6.094;2023-08-31T10:36:19;19.10;99.90
26212;DHT22;13951;49.516;6.094;2023-08-31T10:41:34;19.10;99.90
26212;DHT22;13951;49.516;6.094;2023-08-31T10:44:25;19.00;99.90
26212;DHT22;13951;49.516;6.094;2023-08-31T10:47:00;18.90;99.90
26212;DHT22;13951;49.516;6.094;2023-08-31T10:49:36;18.90;99.90
26212;DHT22;13951;49.516;6.094;2023-08-31T10:52:19;19.00;99.90
26212;DHT22;13951;49.516;6.094;2023-08-31T10:55:14;19.10;99.90
26212;DHT22;13951;49.516;6.094;2023-08-31T10:57:48;19.00;99.90
26212;DHT22;13951;49.516;6.094;2023-08-31T11:00:52;19.30;99.90
26212;DHT22;13951;49.516;6.094;2023-08-31T11:03:26;19.50;99.90
26212;DHT22;13951;49.516;6.094;2023-08-31T11:06:01;19.60;99.90
26212;DHT22;13951;49.516;6.094;2023-08-31T11:08:34;19.80;99.90
26212;DHT22;13951;49.516;6.094;2023-08-31T11:11:09;20.00;99.90
26212;DHT22;13951;49.516;6.094;2023-08-31T11:13:43;20.00;99.90
26212;DHT22;13951;49.516;6.094;2023-08-31T11:16:18;19.80;99.90
26212;DHT22;13951;49.516;6.094;2023-08-31T11:18:51;19.60;99.90
26212;DHT22;13951;49.516;6.094;2023-08-31T11:21:26;19.40;99.90
26212;DHT22;13951;49.516;6.094;2023-08-31T11:23:59;19.10;99.90
26212;DHT22;13951;49.516;6.094;2023-08-31T11:26:34;19.10;99.90
26212;DHT22;13951;49.516;6.094;2023-08-31T11:29:07;19.10;99.90
26212;DHT22;13951;49.516;6.094;2023-08-31T11:31:41;19.00;99.90
26212;DHT22;13951;49.516;6.094;2023-08-31T11:34:15;18.90;99.90
26212;DHT22;13951;49.516;6.094;2023-08-31T11:36:49;18.80;99.90
26212;DHT22;13951;49.516;6.094;2023-08-31T11:39:24;18.90;99.90
26212;DHT22;13951;49.516;6.094;2023-08-31T11:41:58;19.00;99.90
26212;DHT22;13951;49.516;6.094;2023-08-31T11:44:31;19.10;99.90
26212;DHT22;13951;49.516;6.094;2023-08-31T11:47:06;19.20;99.90
26212;DHT22;13951;49.516;6.094;2023-08-31T11:49:44;19.40;99.90
26212;DHT22;13951;49.516;6.094;2023-08-31T11:52:19;19.70;99.90
26212;DHT22;13951;49.516;6.094;2023-08-31T11:54:53;19.80;99.90
26212;DHT22;13951;49.516;6.094;2023-08-31T11:57:28;19.80;99.90
26212;DHT22;13951;49.516;6.094;2023-08-31T12:00:02;19.70;99.90
26212;DHT22;13951;49.516;6.094;2023-08-31T12:02:36;19.60;99.90
26212;DHT22;13951;49.516;6.094;2023-08-31T12:05:10;19.40;99.90
26212;DHT22;13951;49.516;6.094;2023-08-31T12:07:43;19.30;99.90
26212;DHT22;13951;49.516;6.094;2023-08-31T12:10:16;19.40;99.90
26212;DHT22;13951;49.516;6.094;2023-08-31T12:12:49;19.60;99.90
26212;DHT22;13951;49.516;6.094;2023-08-31T12:15:23;20.00;99.90
26212;DHT22;13951;49.516;6.094;2023-08-31T12:17:56;20.30;99.90
26212;DHT22;13951;49.516;6.094;2023-08-31T12:20:30;20.60;99.90
26212;DHT22;13951;49.516;6.094;2023-08-31T12:23:07;20.60;99.90
26212;DHT22;13951;49.516;6.094;2023-08-31T12:25:48;20.40;99.90
26212;DHT22;13951;49.516;6.094;2023-08-31T12:28:24;20.40;99.90
26212;DHT22;13951;49.516;6.094;2023-08-31T12:30:59;20.30;99.90
26212;DHT22;13951;49.516;6.094;2023-08-31T12:33:34;20.10;99.90
26212;DHT22;13951;49.516;6.094;2023-08-31T12:36:08;19.90;99.90
26212;DHT22;13951;49.516;6.094;2023-08-31T12:38:44;19.70;99.90
26212;DHT22;13951;49.516;6.094;2023-08-31T12:41:18;19.60;99.90
26212;DHT22;13951;49.516;6.094;2023-08-31T12:43:56;19.60;99.90
26212;DHT22;13951;49.516;6.094;2023-08-31T12:46:31;19.70;99.90
26212;DHT22;13951;49.516;6.094;2023-08-31T12:49:04;19.70;99.90
26212;DHT22;13951;49.516;6.094;2023-08-31T12:51:38;19.70;99.90
26212;DHT22;13951;49.516;6.094;2023-08-31T12:54:11;19.80;99.90
26212;DHT22;13951;49.516;6.094;2023-08-31T12:56:46;19.90;99.90
26212;DHT22;13951;49.516;6.094;2023-08-31T12:59:21;19.80;99.90
26212;DHT22;13951;49.516;6.094;2023-08-31T13:01:56;19.80;99.90
26212;DHT22;13951;49.516;6.094;2023-08-31T13:04:30;19.90;99.90
26212;DHT22;13951;49.516;6.094;2023-08-31T13:07:03;19.80;99.90
26212;DHT22;13951;49.516;6.094;2023-08-31T13:09:39;19.80;99.90
26212;DHT22;13951;49.516;6.094;2023-08-31T13:12:12;19.80;99.90
26212;DHT22;13951;49.516;6.094;2023-08-31T13:14:46;19.90;99.90
26212;DHT22;13951;49.516;6.094;2023-08-31T13:17:19;19.90;99.90
26212;DHT22;13951;49.516;6.094;2023-08-31T13:19:57;19.90;99.90
26212;DHT22;13951;49.516;6.094;2023-08-31T13:22:30;19.90;99.90
26212;DHT22;13951;49.516;6.094;2023-08-31T13:25:04;19.90;99.90
26212;DHT22;13951;49.516;6.094;2023-08-31T13:27:37;19.80;99.90
26212;DHT22;13951;49.516;6.094;2023-08-31T13:30:11;19.80;99.90
26212;DHT22;13951;49.516;6.094;2023-08-31T13:32:45;19.60;99.90
26212;DHT22;13951;49.516;6.094;2023-08-31T13:35:18;19.50;99.90
26212;DHT22;13951;49.516;6.094;2023-08-31T13:37:51;19.30;99.90
26212;DHT22;13951;49.516;6.094;2023-08-31T13:40:25;19.20;99.90
26212;DHT22;13951;49.516;6.094;2023-08-31T13:42:59;19.10;99.90
26212;DHT22;13951;49.516;6.094;2023-08-31T13:45:41;19.00;99.90
26212;DHT22;13951;49.516;6.094;2023-08-31T13:48:18;19.00;99.90
26212;DHT22;13951;49.516;6.094;2023-08-31T13:50:51;19.00;99.90
26212;DHT22;13951;49.516;6.094;2023-08-31T13:53:24;19.00;99.90
26212;DHT22;13951;49.516;6.094;2023-08-31T13:55:57;19.00;99.90
26212;DHT22;13951;49.516;6.094;2023-08-31T13:58:30;19.00;99.90
26212;DHT22;13951;49.516;6.094;2023-08-31T14:01:05;19.10;99.90
26212;DHT22;13951;49.516;6.094;2023-08-31T14:03:41;19.20;99.90
26212;DHT22;13951;49.516;6.094;2023-08-31T14:06:15;19.20;99.90
26212;DHT22;13951;49.516;6.094;2023-08-31T14:08:48;19.20;99.90
26212;DHT22;13951;49.516;6.094;2023-08-31T14:11:21;19.20;99.90
26212;DHT22;13951;49.516;6.094;2023-08-31T14:14:04;19.30;99.90
26212;DHT22;13951;49.516;6.094;2023-08-31T14:16:44;19.30;99.90
26212;DHT22;13951;49.516;6.094;2023-08-31T14:19:17;19.30;99.90
26212;DHT22;13951;49.516;6.094;2023-08-31T14:21:51;19.40;99.90
26212;DHT22;13951;49.516;6.094;2023-08-31T14:24:25;19.50;99.90
26212;DHT22;13951;49.516;6.094;2023-08-31T14:26:58;19.50;99.90
26212;DHT22;13951;49.516;6.094;2023-08-31T14:29:32;19.60;99.90
26212;DHT22;13951;49.516;6.094;2023-08-31T14:32:06;19.60;99.90
26212;DHT22;13951;49.516;6.094;2023-08-31T14:34:40;19.60;99.90
26212;DHT22;13951;49.516;6.094;2023-08-31T14:37:13;19.50;99.90
26212;DHT22;13951;49.516;6.094;2023-08-31T14:39:46;19.50;99.90
26212;DHT22;13951;49.516;6.094;2023-08-31T14:42:24;19.40;99.90
26212;DHT22;13951;49.516;6.094;2023-08-31T14:44:57;19.40;99.90
26212;DHT22;13951;49.516;6.094;2023-08-31T14:47:30;19.50;99.90
26212;DHT22;13951;49.516;6.094;2023-08-31T14:50:04;19.50;99.90
26212;DHT22;13951;49.516;6.094;2023-08-31T14:52:38;19.50;99.90
26212;DHT22;13951;49.516;6.094;2023-08-31T14:55:11;19.50;99.90
26212;DHT22;13951;49.516;6.094;2023-08-31T14:57:44;19.50;99.90
26212;DHT22;13951;49.516;6.094;2023-08-31T15:00:18;19.50;99.90
26212;DHT22;13951;49.516;6.094;2023-08-31T15:02:51;19.40;99.90
26212;DHT22;13951;49.516;6.094;2023-08-31T15:05:25;19.40;99.90
26212;DHT22;13951;49.516;6.094;2023-08-31T15:08:01;19.40;99.90
26212;DHT22;13951;49.516;6.094;2023-08-31T15:10:37;19.30;99.90
26212;DHT22;13951;49.516;6.094;2023-08-31T15:13:10;19.30;99.90
26212;DHT22;13951;49.516;6.094;2023-08-31T15:15:47;19.30;99.90
26212;DHT22;13951;49.516;6.094;2023-08-31T15:18:26;19.30;99.90
26212;DHT22;13951;49.516;6.094;2023-08-31T15:21:00;19.20;99.90
26212;DHT22;13951;49.516;6.094;2023-08-31T15:23:34;19.20;99.90
26212;DHT22;13951;49.516;6.094;2023-08-31T15:26:08;19.10;99.90
26212;DHT22;13951;49.516;6.094;2023-08-31T15:28:41;19.10;99.90
26212;DHT22;13951;49.516;6.094;2023-08-31T15:31:16;19.10;99.90
26212;DHT22;13951;49.516;6.094;2023-08-31T15:33:50;19.10;99.90
26212;DHT22;13951;49.516;6.094;2023-08-31T15:36:24;19.00;99.90
26212;DHT22;13951;49.516;6.094;2023-08-31T15:38:58;19.00;99.90
26212;DHT22;13951;49.516;6.094;2023-08-31T15:41:31;18.90;99.90
26212;DHT22;13951;49.516;6.094;2023-08-31T15:44:08;18.80;99.90
26212;DHT22;13951;49.516;6.094;2023-08-31T15:46:42;18.70;99.90
26212;DHT22;13951;49.516;6.094;2023-08-31T15:49:15;18.60;99.90
26212;DHT22;13951;49.516;6.094;2023-08-31T15:51:48;18.60;99.90
26212;DHT22;13951;49.516;6.094;2023-08-31T15:54:29;18.40;99.90
26212;DHT22;13951;49.516;6.094;2023-08-31T15:57:03;18.30;99.90
26212;DHT22;13951;49.516;6.094;2023-08-31T15:59:41;18.20;99.90
26212;DHT22;13951;49.516;6.094;2023-08-31T16:02:19;18.00;99.90
26212;DHT22;13951;49.516;6.094;2023-08-31T16:05:09;17.90;99.90
26212;DHT22;13951;49.516;6.094;2023-08-31T16:07:42;17.70;99.90
26212;DHT22;13951;49.516;6.094;2023-08-31T16:10:17;17.50;99.90
26212;DHT22;13951;49.516;6.094;2023-08-31T16:12:52;17.40;99.90
26212;DHT22;13951;49.516;6.094;2023-08-31T16:15:32;17.20;99.90
26212;DHT22;13951;49.516;6.094;2023-08-31T16:18:07;17.10;99.90
26212;DHT22;13951;49.516;6.094;2023-08-31T16:37:28;16.50;99.90
26212;DHT22;13951;49.516;6.094;2023-08-31T16:40:03;16.40;99.90
26212;DHT22;13951;49.516;6.094;2023-08-31T16:42:38;16.40;99.90
26212;DHT22;13951;49.516;6.094;2023-08-31T16:45:15;16.40;99.90
26212;DHT22;13951;49.516;6.094;2023-08-31T16:47:48;16.30;99.90
26212;DHT22;13951;49.516;6.094;2023-08-31T16:50:32;16.30;99.90
26212;DHT22;13951;49.516;6.094;2023-08-31T16:53:05;16.20;99.90
26212;DHT22;13951;49.516;6.094;2023-08-31T16:55:38;16.20;99.90
26212;DHT22;13951;49.516;6.094;2023-08-31T16:58:12;16.20;99.90
26212;DHT22;13951;49.516;6.094;2023-08-31T17:25:19;15.50;99.90
26212;DHT22;13951;49.516;6.094;2023-08-31T17:27:52;15.50;99.90
26212;DHT22;13951;49.516;6.094;2023-08-31T17:30:26;15.50;99.90
26212;DHT22;13951;49.516;6.094;2023-08-31T17:33:01;15.50;99.90
26212;DHT22;13951;49.516;6.094;2023-08-31T17:36:11;15.50;99.90
26212;DHT22;13951;49.516;6.094;2023-08-31T17:38:47;15.50;99.90
26212;DHT22;13951;49.516;6.094;2023-08-31T17:41:20;15.50;99.90
26212;DHT22;13951;49.516;6.094;2023-08-31T17:43:54;15.50;99.90
26212;DHT22;13951;49.516;6.094;2023-08-31T17:46:27;15.50;99.90
26212;DHT22;13951;49.516;6.094;2023-08-31T17:49:03;15.40;99.90
26212;DHT22;13951;49.516;6.094;2023-08-31T17:51:36;15.40;99.90
26212;DHT22;13951;49.516;6.094;2023-08-31T17:54:09;15.40;99.90
26212;DHT22;13951;49.516;6.094;2023-08-31T17:56:42;15.40;99.90
26212;DHT22;13951;49.516;6.094;2023-08-31T17:59:15;15.30;99.90
26212;DHT22;13951;49.516;6.094;2023-08-31T18:01:50;15.20;99.90
26212;DHT22;13951;49.516;6.094;2023-08-31T18:04:23;15.20;99.90
26212;DHT22;13951;49.516;6.094;2023-08-31T18:06:56;15.20;99.90
26212;DHT22;13951;49.516;6.094;2023-08-31T18:09:29;15.20;99.90
26212;DHT22;13951;49.516;6.094;2023-08-31T18:12:09;15.20;99.90
26212;DHT22;13951;49.516;6.094;2023-08-31T18:14:42;15.20;99.90
26212;DHT22;13951;49.516;6.094;2023-08-31T18:17:17;15.20;99.90
26212;DHT22;13951;49.516;6.094;2023-08-31T18:19:52;15.20;99.90
26212;DHT22;13951;49.516;6.094;2023-08-31T18:22:26;15.20;99.90
26212;DHT22;13951;49.516;6.094;2023-08-31T18:24:59;15.30;99.90
26212;DHT22;13951;49.516;6.094;2023-08-31T18:27:32;15.30;99.90
26212;DHT22;13951;49.516;6.094;2023-08-31T18:30:06;15.40;99.90
26212;DHT22;13951;49.516;6.094;2023-08-31T18:32:40;15.40;99.90
26212;DHT22;13951;49.516;6.094;2023-08-31T18:35:15;15.40;99.90
26212;DHT22;13951;49.516;6.094;2023-08-31T18:37:49;15.40;99.90
26212;DHT22;13951;49.516;6.094;2023-08-31T18:40:23;15.40;99.90
26212;DHT22;13951;49.516;6.094;2023-08-31T18:42:57;15.40;99.90
26212;DHT22;13951;49.516;6.094;2023-08-31T18:45:30;15.40;99.90
26212;DHT22;13951;49.516;6.094;2023-08-31T18:48:04;15.40;99.90
26212;DHT22;13951;49.516;6.094;2023-08-31T18:50:39;15.30;99.90
26212;DHT22;13951;49.516;6.094;2023-08-31T18:53:12;15.30;99.90
26212;DHT22;13951;49.516;6.094;2023-08-31T18:55:45;15.20;99.90
26212;DHT22;13951;49.516;6.094;2023-08-31T18:58:18;15.30;99.90